Unbenanntes Dokument
Flugplatz Bielefeld Platzwetter

 

Aktuelles Platzwetter am Flugplatz Bielefeld EDLI

18.01.19 ,11:27 Uhr

METAR EDLI 181127Z 18004KT 9999 ///003 M00/M00 Q1020

 

Windwerte

 

Wolkenuntergrenzen

Wind aktuell:180 ° mit 3 kt
Wind 10 min Extrem:
140 ° bis 220 ° mit 2 kt bis 6 kt
Seitenwindkomponente: 3.5 kt
Wolkengrenze 1: 400 ft
Wolkengrenze 2:
Wolkengrenze 3:

Webcam

Temperatur

       

Sichtweite:

10.000 Meter

-0.5 °C
Taupunkt: -0.7 °C
Luftfeuchtigkeit: 98 %

Luftdruck:

QNH: 1020 hPa (30.12 in Hg)
QFE: 1004 hPa (29.65 in Hg)

Diese Daten werden automatisch ermittelt bzw. übertragen und sind nicht geprüft. Für die Richtigkeit wird daher keine Gewähr übernommen. Sie ersetzen im übrigen nicht die Flugwetterberatung. Alle Zeitangaben beziehen sich auf UTC. Die Seite wird einmal die Minute aktualisiert! Sollten Sie ein ältere Seite haben, so drücken Sie bitte auf den Reload Button Ihres Browsers!